メインページ
METAR-TAF:

METAR-TAF

空港 :

ジザン, サウジアラビア

緯度: 16-54N, 経度: 042-35E, 海抜: 6m

現時点の気象観測

当レポートは16分前の09:00(UTC)に作成
南西の風 10kt
気温 37°C
湿度 48%
気圧 1005 hPa
視程: 7000m

METAR: OEGN 230900Z 23010KT 7000 NSC 37/24 Q1005 NOSIG

時間: 12:16 (09:16 UTC)

予報

当レポートは10時間16分前の23:00(UTC)に作成
予報は23日の 00時(UTC)から 24日の 06時(UTC)まで有効
西/南西の風 8kt
視程: 7000m
高度3000ftの雲はほとんどない
高度10000ftの雲は散在している
23日の 06時(UTC)から 23日の 08時(UTC)まで徐々に
西の風 16kt
23日の 08時(UTC)から 23日の 16時(UTC)まで一時的に
視程: 3500m
高度3000ftの雲は散在している
高度3500ftの雲はほとんどない, 積乱雲.
広範な塵, 風塵

TAF: OEGN 222300Z 2300/2406 24008KT 7000 FEW030 SCT100 BECMG 2306/2308 27016KT TEMPO 2308/2316 3500 DU BLDU SCT030 FEW035CB

4,000以上の空港の気象観測と天気予報(METAR報とTAF報)

利用可能な観測所は地図上に黄色い丸と赤い丸で示す。

丸の上にカーソルを重ねると観測所名を参照できる。

次にクリックすると気象観測と天気予報を参照できる。

マップの切り替え:黒色「×」印の緑ボタンをクリックして拡大、「-」印の緑ボタンをクリックして縮小、緑色の三角印をクリックして隣りの地図に切り替え


METAR-TAF: